Tropical Cyclones
[Index]
Main Index Home Page Stock Weather Photos Extreme Storms Discussion Storm News and Storm Chasing Reports Tropical Cyclones / Hurricanes / Typhoons Weather Data and Links Wild Fires / Bushfires Weather Observation Techniques Weather Picture Catalogue Tornado Pictures and Reports Stock Video Footage and DVDs for sale
Season 2004-2005 Tropical Cyclone TROP-DEPRESSION-08 Track Map
Season 2004-2005 Summaries (Operational Data): [AU] [SIO] [SPAC] [SH]
<<- Previous TC | 2004-2005 Season | Next TC ->>

click for intensity scale information  Lat/long Grid: Show Hide

 Date Labels: Show Hide

Operational Tropical Cyclone Data

Name: TROP-DEPRESSION-08
Number: 05PH

14 Apr 2005 21:00 UTC to 01 May 2005 18:00 UTC

    date/time    lat    long     hPa   cat  kts
2005-04-14 21   14.0   161.5    1000         20          
2005-04-15 09   14.0   162.0    1000         20          
2005-04-15 18   17.0   166.0    1000         25          
2005-04-16 06   16.0   166.0    1001         25          
2005-04-16 18   17.0   167.0    1000         20          
2005-04-18 00   19.0   169.0    1000         20          
2005-04-18 06   18.0   168.0    1002         20          
2005-04-18 23   19.0   169.0    1002         20          
2005-04-19 06   17.0   171.0    1002         20          
2005-04-20 21   16.0   168.0    1008         20          
2005-04-21 21   14.5   169.5    1007         20          
2005-04-22 06   15.0   168.0    1006         20          
2005-04-22 21   15.0   173.0    1006         25          
2005-04-23 06   16.0   177.0    1005         25          
2005-04-23 21   15.0   180.0    1006         20          
2005-04-24 06   15.0   178.0    1006         20          
2005-04-25 06   17.0   180.0    1005         30          
2005-04-25 23   18.0   177.0W   1008         30          
2005-04-26 06   15.0   178.0W   1010         30          
2005-04-26 21   15.0   175.0W   1010         30          
2005-04-27 06   15.0   176.0W   1010         25          
2005-04-27 21   13.0   175.0W   1009         20          
2005-04-28 06   13.0   174.0W   1009         20          
2005-04-28 21   14.0   174.0W   1009         20          
2005-04-29 06   12.0   176.0W   1007         20          
2005-04-29 21   14.0   177.0W   1009         20          
2005-04-30 06   15.0   176.0W   1009         20          
2005-04-30 22   18.5   177.5W   1009         30          
2005-05-01 06   20.0   178.0W   1009         30          
2005-05-01 18   20.0   177.0W   1010         30          
Winds are 10-min average.

Tropical cyclone tracks developed by Michael Bath using operational warnings and advisories and Google Maps.


[Australian Severe Weather index] [Copyright Notice] [Email Contacts] [Search This Site] [Privacy Policy]
Document: tropical_cyclone_trop-depression-08.htm Updated: 28 May 2013